Time;durP1;ratioP1;P1;durP2;ratioP2;P2;SDS_P1;SDS_P2;PMS_P1;PMS_P2;Temp;Humidity;BMP_temperature;BMP_pressure;BME280_temperature;BME280_humidity;BME280_pressure;Samples;Min_cycle;Max_cycle;Signal;HPM_P1;HPM_P2
2022/09/26 00:02:09;;;;;;;11.05;2.80;;;11.20;99.90;;;;;;4958459;28;207879;-71
2022/09/26 00:04:35;;;;;;;8.15;2.20;;;11.20;99.90;;;;;;5003373;28;20052;-71
2022/09/26 00:07:01;;;;;;;8.65;2.38;;;11.20;99.90;;;;;;4978951;28;212711;-71
2022/09/26 00:09:27;;;;;;;9.10;2.75;;;11.10;99.90;;;;;;5004471;28;20062;-71
2022/09/26 00:11:54;;;;;;;8.65;2.25;;;11.10;99.90;;;;;;4981514;28;208633;-71
2022/09/26 00:14:24;;;;;;;9.00;2.40;;;11.10;99.90;;;;;;5006473;28;20042;-71
2022/09/26 00:16:50;;;;;;;7.93;2.40;;;11.10;99.90;;;;;;4976510;28;205952;-71
2022/09/26 00:19:17;;;;;;;9.85;2.28;;;11.10;99.90;;;;;;5012012;28;20049;-71
2022/09/26 00:21:44;;;;;;;8.20;2.03;;;11.10;99.90;;;;;;4972832;28;209872;-70
2022/09/26 00:24:10;;;;;;;11.18;2.63;;;11.10;99.90;;;;;;5000456;28;20066;-70
2022/09/26 00:26:37;;;;;;;9.50;2.55;;;11.10;99.90;;;;;;4961624;28;209902;-71
2022/09/26 00:29:08;;;;;;;8.25;2.53;;;11.10;99.90;;;;;;5000382;28;20422;-71
2022/09/26 00:31:40;;;;;;;8.88;2.42;;;11.10;99.90;;;;;;4971916;28;193775;-71
2022/09/26 00:34:06;;;;;;;8.35;2.67;;;11.10;99.90;;;;;;5008511;28;20072;-71
2022/09/26 00:36:33;;;;;;;16.60;3.00;;;11.10;99.90;;;;;;4984188;28;211062;-71
2022/09/26 00:38:59;;;;;;;10.15;2.75;;;11.10;99.90;;;;;;5006490;28;20641;-71
2022/09/26 00:41:25;;;;;;;10.65;3.22;;;11.10;99.90;;;;;;4970755;28;212180;-71
2022/09/26 00:43:55;;;;;;;8.60;2.85;;;11.20;99.90;;;;;;5008350;28;20058;-72
2022/09/26 00:46:38;;;;;;;8.95;2.63;;;11.20;99.90;;;;;;4973672;28;213941;-72
2022/09/26 00:49:13;;;;;;;12.57;2.80;;;11.20;99.90;;;;;;4988483;28;20061;-71
2022/09/26 00:51:45;;;;;;;11.23;2.83;;;11.20;99.90;;;;;;4968772;28;210329;-71
2022/09/26 00:54:14;;;;;;;10.35;3.20;;;11.20;99.90;;;;;;5004044;28;20423;-71
2022/09/26 00:56:42;;;;;;;13.90;3.13;;;11.20;99.90;;;;;;4992902;28;167843;-71
2022/09/26 00:59:19;;;;;;;9.63;3.28;;;11.20;99.90;;;;;;5007105;28;20084;-70
2022/09/26 01:01:45;;;;;;;10.07;2.90;;;11.20;99.90;;;;;;4983653;28;182670;-70
2022/09/26 01:04:12;;;;;;;9.07;3.13;;;11.10;99.90;;;;;;5003300;28;20054;-70
2022/09/26 01:06:38;;;;;;;11.43;3.15;;;11.10;99.90;;;;;;4965934;28;212870;-70
2022/09/26 01:09:11;;;;;;;10.30;3.22;;;11.10;99.90;;;;;;5009743;28;20049;-70
2022/09/26 01:11:39;;;;;;;10.25;2.88;;;11.10;99.90;;;;;;4971789;28;205163;-70
2022/09/26 01:14:07;;;;;;;8.50;2.92;;;11.10;99.90;;;;;;4987443;28;20073;-70
2022/09/26 01:16:35;;;;;;;9.57;3.17;;;11.10;99.90;;;;;;4971062;28;206389;-70
2022/09/26 01:19:11;;;;;;;11.18;3.10;;;11.10;99.90;;;;;;4999580;28;20057;-70
2022/09/26 01:21:58;;;;;;;8.95;2.70;;;11.10;99.90;;;;;;4969384;28;212291;-71
2022/09/26 01:24:30;;;;;;;9.60;2.80;;;11.10;99.90;;;;;;5007633;28;20092;-72
2022/09/26 01:26:56;;;;;;;9.48;2.70;;;11.10;99.90;;;;;;4983960;28;215892;-71
2022/09/26 01:29:49;;;;;;;12.70;3.10;;;11.10;99.90;;;;;;5005723;28;20417;-71
2022/09/26 01:32:49;;;;;;;13.30;3.10;;;11.10;99.90;;;;;;4975301;28;210807;-71
2022/09/26 01:35:36;;;;;;;11.77;3.03;;;11.10;99.90;;;;;;4958472;28;209375;-71
2022/09/26 01:38:38;;;;;;;8.70;2.70;;;11.10;99.90;;;;;;5011067;28;20738;-72
2022/09/26 01:41:32;;;;;;;9.60;2.60;;;11.20;99.90;;;;;;4964613;28;231856;-71
2022/09/26 01:44:25;;;;;;;10.75;2.85;;;11.20;99.90;;;;;;5005994;28;20519;-72
2022/09/26 01:46:54;;;;;;;10.05;2.35;;;11.20;99.90;;;;;;4980726;28;209561;-71
2022/09/26 01:49:29;;;;;;;12.88;2.80;;;11.20;99.90;;;;;;5006573;28;20419;-71
2022/09/26 01:52:21;;;;;;;11.98;2.90;;;11.20;99.90;;;;;;4964957;28;213707;-71
2022/09/26 01:54:51;;;;;;;;;;;11.20;99.90;;;;;;5000424;28;20639;-71
2022/09/26 01:57:27;;;;;;;10.48;2.53;;;11.20;99.90;;;;;;4950652;28;211559;-72
2022/09/26 01:59:59;;;;;;;10.15;2.70;;;11.20;99.90;;;;;;4978190;28;20063;-70
2022/09/26 02:02:34;;;;;;;11.35;2.70;;;11.20;99.90;;;;;;4942721;28;208650;-70
2022/09/26 02:05:07;;;;;;;11.68;2.83;;;11.30;99.90;;;;;;4980673;28;20058;-69
2022/09/26 02:07:42;;;;;;;9.10;2.50;;;11.30;99.90;;;;;;4926048;28;265342;-70
2022/09/26 02:10:20;;;;;;;10.18;2.65;;;11.30;99.90;;;;;;4977492;28;20065;-70
2022/09/26 02:12:53;;;;;;;10.55;2.92;;;11.30;99.90;;;;;;4925308;28;206802;-71
2022/09/26 02:15:24;;;;;;;9.68;2.60;;;11.30;99.90;;;;;;4939521;28;206295;-70
2022/09/26 02:18:21;;;;;;;10.38;2.83;;;11.30;99.90;;;;;;4969820;28;20676;-71
2022/09/26 02:20:56;;;;;;;11.25;2.97;;;11.30;99.90;;;;;;4952426;28;206244;-70
2022/09/26 02:23:23;;;;;;;12.43;2.70;;;11.30;99.90;;;;;;4980487;28;20078;-71
2022/09/26 02:25:49;;;;;;;11.30;2.95;;;11.30;99.90;;;;;;4942153;28;205705;-70
2022/09/26 02:28:16;;;;;;;11.48;2.80;;;11.30;99.90;;;;;;5023748;28;20069;-70
2022/09/26 02:30:46;;;;;;;10.93;2.60;;;11.30;99.90;;;;;;4959712;28;207641;-70
2022/09/26 02:33:12;;;;;;;11.80;3.05;;;11.30;99.90;;;;;;5009691;28;20057;-71
2022/09/26 02:35:53;;;;;;;11.30;3.30;;;11.30;99.90;;;;;;4965282;28;210908;-71
2022/09/26 02:38:22;;;;;;;12.60;2.65;;;11.30;99.90;;;;;;4998824;28;20401;-71
2022/09/26 02:41:08;;;;;;;9.57;2.63;;;11.30;99.90;;;;;;4983130;28;206033;-72
2022/09/26 02:43:40;;;;;;;12.60;3.20;;;11.30;99.90;;;;;;5020035;28;20054;-72
2022/09/26 02:46:37;;;;;;;16.77;3.30;;;11.30;99.90;;;;;;4981492;28;209103;-72
2022/09/26 02:49:34;;;;;;;12.68;3.58;;;11.20;99.90;;;;;;5012396;28;20062;-72
2022/09/26 02:52:20;;;;;;;13.23;3.20;;;11.20;99.90;;;;;;4981078;28;218329;-72
2022/09/26 02:55:17;;;;;;;11.65;3.75;;;11.20;99.90;;;;;;5008476;28;20053;-72
2022/09/26 02:58:10;;;;;;;12.55;3.50;;;11.10;99.90;;;;;;4941964;28;206538;-73
2022/09/26 03:01:12;;;;;;;12.77;3.65;;;11.10;99.90;;;;;;4949715;28;216185;-73
2022/09/26 03:04:00;;;;;;;13.38;4.57;;;11.10;99.90;;;;;;4990450;28;20057;-74
2022/09/26 03:06:33;;;;;;;13.10;4.38;;;11.00;99.90;;;;;;4965759;28;209008;-73
2022/09/26 03:09:01;;;;;;;10.77;4.20;;;11.00;99.90;;;;;;4997837;28;20054;-73
2022/09/26 03:11:28;;;;;;;11.38;4.63;;;11.00;99.90;;;;;;4944353;28;216322;-73
2022/09/26 03:13:56;;;;;;;12.55;4.70;;;11.00;99.90;;;;;;4985866;28;20052;-72
2022/09/26 03:16:26;;;;;;;12.43;4.68;;;11.00;99.90;;;;;;4952129;28;204448;-71
2022/09/26 03:19:05;;;;;;;12.85;4.68;;;11.00;99.90;;;;;;5010796;28;20042;-72
2022/09/26 03:21:31;;;;;;;13.15;5.15;;;11.00;99.90;;;;;;4957263;28;206148;-71
2022/09/26 03:23:58;;;;;;;12.35;5.30;;;11.00;99.90;;;;;;4999361;28;20047;-72
2022/09/26 03:26:27;;;;;;;11.30;5.07;;;11.00;99.90;;;;;;4950072;28;149369;-72
2022/09/26 03:28:55;;;;;;;17.58;5.40;;;11.00;99.90;;;;;;4991219;28;20054;-71
2022/09/26 03:31:24;;;;;;;13.85;5.43;;;11.00;99.90;;;;;;4932117;28;212727;-72
2022/09/26 03:33:51;;;;;;;13.05;5.97;;;11.00;99.90;;;;;;4987907;28;20074;-73
2022/09/26 03:36:17;;;;;;;17.52;6.20;;;11.00;99.90;;;;;;4950157;28;211689;-71
2022/09/26 03:38:43;;;;;;;13.40;6.28;;;11.00;99.90;;;;;;5018644;28;20057;-72
2022/09/26 03:41:10;;;;;;;13.48;6.30;;;11.00;99.90;;;;;;4968988;28;211566;-72
2022/09/26 03:43:36;;;;;;;13.02;6.35;;;11.00;99.90;;;;;;4999543;28;20053;-72
2022/09/26 03:46:06;;;;;;;15.80;6.20;;;11.00;99.90;;;;;;4970043;28;210330;-73
2022/09/26 03:48:33;;;;;;;14.68;6.10;;;11.00;99.90;;;;;;5003510;28;20625;-73
2022/09/26 03:51:02;;;;;;;13.50;6.57;;;11.00;99.90;;;;;;4965335;28;207644;-72
2022/09/26 03:53:34;;;;;;;16.10;6.78;;;10.90;99.90;;;;;;5020666;28;20062;-73
2022/09/26 03:56:05;;;;;;;12.65;6.15;;;11.00;99.90;;;;;;4977016;28;53720;-72
2022/09/26 03:58:31;;;;;;;13.02;6.47;;;10.90;99.90;;;;;;5007797;28;20053;-72
2022/09/26 04:01:15;;;;;;;13.57;6.28;;;10.90;99.90;;;;;;4965952;28;210651;-73
2022/09/26 04:03:43;;;;;;;12.73;5.82;;;10.90;99.90;;;;;;5007727;28;20057;-72
2022/09/26 04:06:10;;;;;;;17.00;6.43;;;10.90;99.90;;;;;;4966820;28;205331;-73
2022/09/26 04:08:38;;;;;;;10.48;5.85;;;10.90;99.90;;;;;;5020315;28;20427;-73
2022/09/26 04:11:09;;;;;;;13.82;5.90;;;10.90;99.90;;;;;;4980358;28;206159;-72
2022/09/26 04:13:36;;;;;;;14.15;5.97;;;10.90;99.90;;;;;;5002751;28;20050;-72
2022/09/26 04:16:04;;;;;;;13.77;6.07;;;10.90;99.90;;;;;;4973323;28;128099;-72
2022/09/26 04:18:31;;;;;;;13.88;5.50;;;10.90;99.90;;;;;;5014941;28;20450;-71
2022/09/26 04:21:00;;;;;;;13.55;5.90;;;10.90;99.90;;;;;;4991164;28;205534;-73
2022/09/26 04:23:27;;;;;;;11.90;5.75;;;10.90;99.90;;;;;;5013430;28;20050;-72
2022/09/26 04:25:53;;;;;;;15.80;6.40;;;10.80;99.90;;;;;;4959572;28;210319;-72
2022/09/26 04:28:20;;;;;;;18.08;5.97;;;10.90;99.90;;;;;;4998384;28;20511;-72
2022/09/26 04:30:46;;;;;;;12.70;5.80;;;10.80;99.90;;;;;;4951115;28;205177;-71
2022/09/26 04:33:12;;;;;;;14.38;6.00;;;10.80;99.90;;;;;;4994959;28;20419;-71
2022/09/26 04:35:38;;;;;;;13.07;5.43;;;10.80;99.90;;;;;;4980409;28;207415;-72
2022/09/26 04:38:05;;;;;;;15.75;6.38;;;10.80;99.90;;;;;;5028252;28;20481;-71
2022/09/26 04:40:31;;;;;;;15.27;6.10;;;10.80;99.90;;;;;;4960861;28;210507;-72
2022/09/26 04:42:57;;;;;;;12.80;5.65;;;10.80;99.90;;;;;;4998749;28;20058;-72
2022/09/26 04:45:23;;;;;;;13.90;6.00;;;10.80;99.90;;;;;;4950810;28;209186;-72
2022/09/26 04:47:50;;;;;;;12.95;6.05;;;10.80;99.90;;;;;;5015124;28;20397;-72
2022/09/26 04:50:16;;;;;;;12.57;5.95;;;10.80;99.90;;;;;;4944355;28;208784;-73
2022/09/26 04:52:43;;;;;;;13.13;6.50;;;10.80;99.90;;;;;;5020115;28;20049;-72
2022/09/26 04:55:09;;;;;;;14.55;6.55;;;10.80;99.90;;;;;;5007626;28;208521;-72
2022/09/26 04:57:36;;;;;;;11.80;6.20;;;10.80;99.90;;;;;;4998118;28;125199;-72
2022/09/26 05:00:06;;;;;;;13.45;6.13;;;10.80;99.90;;;;;;5002516;28;20084;-71
2022/09/26 05:02:35;;;;;;;13.52;6.22;;;10.80;99.90;;;;;;4963905;28;207656;-73
2022/09/26 05:05:02;;;;;;;16.90;6.50;;;10.80;99.90;;;;;;4981591;28;20074;-73
2022/09/26 05:07:29;;;;;;;13.10;6.53;;;10.80;99.90;;;;;;4942050;28;208452;-73
2022/09/26 05:09:55;;;;;;;13.85;7.25;;;10.80;99.90;;;;;;4996342;28;20066;-72
2022/09/26 05:12:21;;;;;;;15.77;6.95;;;10.70;99.90;;;;;;4971512;28;215848;-74
2022/09/26 05:14:47;;;;;;;14.88;6.90;;;10.70;99.90;;;;;;4981329;28;20053;-73
2022/09/26 05:17:14;;;;;;;14.95;7.22;;;10.70;99.90;;;;;;4955500;28;207780;-74
2022/09/26 05:19:41;;;;;;;14.70;6.90;;;10.70;99.90;;;;;;4994330;28;20066;-74
2022/09/26 05:22:08;;;;;;;12.85;7.20;;;10.70;99.90;;;;;;4966057;28;216066;-73
2022/09/26 05:27:20;;;;;;;16.58;7.35;;;10.70;99.90;;;;;;4982275;28;208300;-74
2022/09/26 05:29:46;;;;;;;15.30;7.10;;;10.70;99.90;;;;;;5001329;28;20050;-74
2022/09/26 05:32:15;;;;;;;13.55;7.32;;;10.60;99.90;;;;;;4980326;28;173076;-73
2022/09/26 05:34:41;;;;;;;12.90;7.10;;;10.60;99.90;;;;;;5020718;28;20049;-73
2022/09/26 05:37:08;;;;;;;16.92;7.20;;;10.60;99.90;;;;;;4995168;28;206005;-72
2022/09/26 05:42:18;;;;;;;15.50;7.40;;;10.60;99.90;;;;;;4981707;28;204608;-73
2022/09/26 05:44:44;;;;;;;15.32;7.20;;;10.60;99.90;;;;;;5000456;28;20392;-73
2022/09/26 05:47:11;;;;;;;12.32;6.53;;;10.60;99.90;;;;;;4965006;28;212933;-73
2022/09/26 05:49:37;;;;;;;17.60;7.43;;;10.60;99.90;;;;;;5001455;28;20060;-72
2022/09/26 05:52:04;;;;;;;15.35;7.25;;;10.60;99.90;;;;;;4969819;28;211347;-72
2022/09/26 05:54:30;;;;;;;14.93;7.05;;;10.60;99.90;;;;;;5002331;28;20058;-72
2022/09/26 05:56:56;;;;;;;13.18;7.10;;;10.60;99.90;;;;;;4977136;28;202361;-73
2022/09/26 05:59:22;;;;;;;14.55;6.78;;;10.60;99.90;;;;;;4984242;28;20554;-74
2022/09/26 06:01:48;;;;;;;13.73;6.95;;;10.60;99.90;;;;;;4931620;28;212782;-73
2022/09/26 06:04:14;;;;;;;14.85;7.07;;;10.60;99.90;;;;;;4989033;28;20057;-74
2022/09/26 06:06:42;;;;;;;12.38;5.82;;;10.50;99.90;;;;;;4943218;28;205673;-74
2022/09/26 06:09:08;;;;;;;13.00;6.70;;;10.50;99.90;;;;;;4985330;28;20054;-74
2022/09/26 06:11:34;;;;;;;15.05;6.80;;;10.50;99.90;;;;;;4961958;28;209553;-74
2022/09/26 06:14:01;;;;;;;13.40;6.03;;;10.50;99.90;;;;;;4990473;28;20061;-74
2022/09/26 06:16:28;;;;;;;13.70;6.65;;;10.50;99.90;;;;;;4961705;28;205071;-75
2022/09/26 06:18:54;;;;;;;14.38;7.18;;;10.50;99.90;;;;;;4990687;28;20492;-74
2022/09/26 06:21:21;;;;;;;14.18;6.15;;;10.50;99.90;;;;;;4950781;28;176873;-74
2022/09/26 06:23:47;;;;;;;12.57;6.20;;;10.50;99.90;;;;;;4987084;28;20061;-74
2022/09/26 06:26:19;;;;;;;12.50;6.05;;;10.50;99.90;;;;;;4953802;28;210638;-74
2022/09/26 06:28:46;;;;;;;14.55;6.18;;;10.50;99.90;;;;;;4986432;28;20058;-73
2022/09/26 06:31:14;;;;;;;15.43;6.78;;;10.50;99.90;;;;;;4944591;28;209157;-74
2022/09/26 06:33:41;;;;;;;13.05;6.40;;;10.50;99.90;;;;;;4988931;28;20062;-74
2022/09/26 06:36:10;;;;;;;12.52;6.50;;;10.50;99.90;;;;;;4951811;28;205745;-75
2022/09/26 06:38:37;;;;;;;14.48;6.50;;;10.40;99.90;;;;;;5007197;28;20038;-74
2022/09/26 06:41:03;;;;;;;12.93;6.43;;;10.50;99.90;;;;;;4958539;28;213066;-74
2022/09/26 06:43:33;;;;;;;13.85;6.07;;;10.50;99.90;;;;;;4985462;28;20050;-73
2022/09/26 06:45:59;;;;;;;17.40;5.60;;;10.40;99.90;;;;;;4946923;28;211956;-75
2022/09/26 06:48:26;;;;;;;13.40;5.97;;;10.40;99.90;;;;;;4981438;28;20062;-75
2022/09/26 06:50:59;;;;;;;14.70;6.45;;;10.40;99.90;;;;;;4941556;28;210225;-76
2022/09/26 06:53:26;;;;;;;13.98;6.13;;;10.40;99.90;;;;;;4992245;28;20069;-75
2022/09/26 06:55:52;;;;;;;14.25;5.72;;;10.40;99.90;;;;;;4973461;28;204741;-74
2022/09/26 06:58:18;;;;;;;12.75;6.05;;;10.50;99.90;;;;;;5023957;28;20057;-74
2022/09/26 07:00:44;;;;;;;13.32;6.05;;;10.40;99.90;;;;;;4965123;28;205152;-75
2022/09/26 07:03:12;;;;;;;11.57;5.72;;;10.40;99.90;;;;;;5000396;28;20068;-73
2022/09/26 07:05:38;;;;;;;15.30;6.13;;;10.40;99.90;;;;;;4992427;28;212900;-75
2022/09/26 07:08:04;;;;;;;13.00;5.65;;;10.40;99.90;;;;;;5002531;28;20065;-75
2022/09/26 07:10:33;;;;;;;13.05;5.63;;;10.40;99.90;;;;;;4961292;28;212999;-73
2022/09/26 07:13:02;;;;;;;12.10;5.57;;;10.40;99.90;;;;;;5001871;28;20061;-74
2022/09/26 07:15:32;;;;;;;12.88;5.65;;;10.40;99.90;;;;;;4958364;28;215709;-74
2022/09/26 07:18:03;;;;;;;13.38;5.78;;;10.40;99.90;;;;;;5002436;28;20050;-75
2022/09/26 07:20:32;;;;;;;11.10;5.32;;;10.40;99.90;;;;;;4970299;28;207802;-74
2022/09/26 07:23:07;;;;;;;13.55;5.55;;;10.40;99.90;;;;;;5014365;28;20086;-75
2022/09/26 07:25:33;;;;;;;12.13;5.28;;;10.40;99.90;;;;;;4960354;28;206984;-74
2022/09/26 07:28:00;;;;;;;13.27;5.13;;;10.40;99.90;;;;;;5001239;28;20050;-74
2022/09/26 07:30:27;;;;;;;13.80;5.53;;;10.40;99.90;;;;;;4979204;28;211178;-76
2022/09/26 07:32:59;;;;;;;11.98;5.07;;;10.40;99.90;;;;;;5000845;28;20050;-75
2022/09/26 07:35:26;;;;;;;13.40;4.70;;;10.40;99.90;;;;;;4975351;28;209979;-75
2022/09/26 07:37:52;;;;;;;11.60;5.10;;;10.40;99.90;;;;;;4989573;28;20053;-75
2022/09/26 07:40:19;;;;;;;16.33;5.10;;;10.50;99.90;;;;;;4962381;28;211353;-74
2022/09/26 07:42:46;;;;;;;13.43;4.93;;;10.50;99.90;;;;;;5017690;28;20058;-75
2022/09/26 07:45:13;;;;;;;12.48;4.30;;;10.50;99.90;;;;;;5011105;28;211215;-75
2022/09/26 07:50:24;;;;;;;12.45;4.65;;;10.50;99.90;;;;;;4958246;28;215791;-75
2022/09/26 07:52:51;;;;;;;11.40;4.78;;;10.60;99.90;;;;;;5014514;28;20053;-75
2022/09/26 07:55:24;;;;;;;12.47;4.50;;;10.60;99.90;;;;;;4945819;28;211987;-74
2022/09/26 07:57:50;;;;;;;11.85;4.70;;;10.70;99.90;;;;;;5006825;28;20049;-74
2022/09/26 08:00:18;;;;;;;10.55;4.38;;;10.70;99.90;;;;;;4962825;28;211228;-73
2022/09/26 08:02:47;;;;;;;13.27;4.22;;;10.70;99.90;;;;;;5003714;28;20050;-73
2022/09/26 08:05:18;;;;;;;10.48;4.22;;;10.70;99.90;;;;;;4972063;28;212487;-73
2022/09/26 08:07:45;;;;;;;10.67;4.50;;;10.80;99.90;;;;;;5015961;28;20065;-73
2022/09/26 08:10:22;;;;;;;9.70;3.70;;;10.90;99.90;;;;;;4983308;28;209809;-74
2022/09/26 08:12:48;;;;;;;11.55;4.30;;;10.80;99.90;;;;;;4958483;28;219969;-72
2022/09/26 08:15:15;;;;;;;10.57;4.15;;;10.90;99.90;;;;;;4969727;28;211468;-74
2022/09/26 08:17:42;;;;;;;10.15;4.00;;;10.90;99.90;;;;;;5009476;28;20080;-74
2022/09/26 08:20:09;;;;;;;11.75;3.90;;;11.00;99.90;;;;;;5009613;28;20057;-74
2022/09/26 08:22:35;;;;;;;12.88;3.80;;;11.00;99.90;;;;;;4962787;28;200737;-74
2022/09/26 08:25:02;;;;;;;19.67;4.28;;;11.10;99.90;;;;;;5022160;28;20052;-74
2022/09/26 08:27:32;;;;;;;10.68;3.92;;;11.10;99.90;;;;;;4965373;28;180688;-74
2022/09/26 08:29:58;;;;;;;9.35;3.97;;;11.10;99.90;;;;;;5008058;28;20053;-73
2022/09/26 08:32:25;;;;;;;11.98;4.30;;;11.10;99.90;;;;;;4963552;28;213663;-74
2022/09/26 08:34:51;;;;;;;14.70;4.43;;;11.10;99.90;;;;;;5010640;28;20090;-75
2022/09/26 08:37:19;;;;;;;14.55;4.57;;;11.10;99.90;;;;;;4980292;28;203214;-74
2022/09/26 08:39:46;;;;;;;17.50;4.20;;;11.10;99.90;;;;;;5018604;28;20054;-74
2022/09/26 08:42:22;;;;;;;10.65;4.28;;;11.10;99.90;;;;;;4965286;28;208524;-74
2022/09/26 08:48:13;;;;;;;13.85;4.13;;;11.20;99.90;;;;;;4939508;28;205840;-75
2022/09/26 08:50:48;;;;;;;10.25;3.70;;;11.20;99.90;;;;;;4946613;28;209250;-75
2022/09/26 08:53:27;;;;;;;13.23;4.10;;;11.20;99.90;;;;;;4989032;28;20061;-75
2022/09/26 08:55:56;;;;;;;13.10;3.88;;;11.30;99.90;;;;;;4940063;28;206559;-75
2022/09/26 08:58:39;;;;;;;10.70;3.40;;;11.30;99.90;;;;;;4984344;28;20465;-73
2022/09/26 09:01:17;;;;;;;10.73;4.10;;;11.30;99.90;;;;;;4921657;28;207618;-74
2022/09/26 09:03:57;;;;;;;10.57;3.20;;;11.40;99.90;;;;;;4989888;28;20058;-75
2022/09/26 09:06:26;;;;;;;10.02;3.63;;;11.40;99.90;;;;;;4950094;28;204157;-73
2022/09/26 09:08:57;;;;;;;12.55;4.13;;;11.40;99.90;;;;;;4982802;28;20061;-73
2022/09/26 09:11:38;;;;;;;11.20;3.83;;;11.50;99.90;;;;;;4945150;28;205588;-73
2022/09/26 09:14:31;;;;;;;12.93;4.18;;;11.50;99.90;;;;;;4993050;28;20054;-73
2022/09/26 09:17:16;;;;;;;12.13;3.85;;;11.50;99.90;;;;;;4971734;28;164830;-72
2022/09/26 09:20:09;;;;;;;12.20;3.75;;;11.50;99.90;;;;;;4986594;28;20435;-73
2022/09/26 09:22:39;;;;;;;11.82;3.72;;;11.60;99.90;;;;;;4891842;28;201802;-73
2022/09/26 09:25:20;;;;;;;10.50;3.63;;;11.60;99.90;;;;;;4944482;28;20062;-73
2022/09/26 09:28:04;;;;;;;;;;;11.60;99.90;;;;;;4891564;28;206483;-74
2022/09/26 09:30:36;;;;;;;11.02;3.47;;;11.60;99.90;;;;;;4918831;28;205875;-74
2022/09/26 09:33:10;;;;;;;11.45;3.40;;;11.70;99.90;;;;;;4930565;29;20614;-74
2022/09/26 09:35:39;;;;;;;13.45;3.78;;;11.70;99.90;;;;;;4884812;28;208830;-74
2022/09/26 09:38:08;;;;;;;13.00;3.80;;;11.70;99.90;;;;;;4935731;28;20512;-73
2022/09/26 09:40:47;;;;;;;13.27;4.07;;;11.70;99.90;;;;;;4897797;28;150459;-73
2022/09/26 09:43:25;;;;;;;9.75;3.47;;;11.70;99.90;;;;;;4931236;29;20043;-74
2022/09/26 09:45:56;;;;;;;11.98;3.80;;;11.80;99.90;;;;;;4898340;28;207288;-74
2022/09/26 09:48:26;;;;;;;10.85;3.85;;;11.70;99.90;;;;;;4937722;28;20055;-74
2022/09/26 09:51:10;;;;;;;11.98;3.67;;;11.80;99.90;;;;;;4886778;28;207402;-74
2022/09/26 09:53:49;;;;;;;10.45;3.67;;;11.80;99.90;;;;;;4931795;28;20062;-73
2022/09/26 09:56:31;;;;;;;10.05;3.67;;;11.80;99.90;;;;;;4898502;28;205247;-73
2022/09/26 09:59:28;;;;;;;10.50;3.47;;;11.80;99.90;;;;;;4939549;28;20073;-74
2022/09/26 10:02:18;;;;;;;10.98;4.05;;;11.80;99.90;;;;;;4967956;28;206544;-73
2022/09/26 10:05:15;;;;;;;10.43;3.85;;;11.90;99.90;;;;;;4994314;28;20054;-73
2022/09/26 10:07:43;;;;;;;10.63;3.55;;;11.80;99.90;;;;;;4946534;28;205508;-73
2022/09/26 10:10:18;;;;;;;11.02;3.90;;;11.90;99.90;;;;;;4980036;28;208790;-74
2022/09/26 10:12:46;;;;;;;11.20;4.20;;;11.80;99.90;;;;;;4968357;28;216147;-73
2022/09/26 10:15:18;;;;;;;13.88;4.60;;;11.80;99.90;;;;;;4942127;28;215342;-74
2022/09/26 10:18:00;;;;;;;15.35;4.47;;;11.80;99.90;;;;;;4975780;28;209540;-74
2022/09/26 10:20:33;;;;;;;14.43;4.30;;;11.70;99.90;;;;;;4959453;28;209678;-73
2022/09/26 10:23:02;;;;;;;11.95;4.40;;;11.70;99.90;;;;;;4998576;28;20046;-73
2022/09/26 10:25:28;;;;;;;11.73;4.60;;;11.60;99.90;;;;;;4940979;28;209080;-74
2022/09/26 10:27:56;;;;;;;14.70;4.82;;;11.60;99.90;;;;;;4986074;28;20050;-73
2022/09/26 10:30:29;;;;;;;11.55;4.60;;;11.60;99.90;;;;;;4965134;28;215650;-74
2022/09/26 10:32:57;;;;;;;11.32;4.70;;;11.60;99.90;;;;;;4981199;28;20054;-74
2022/09/26 10:35:38;;;;;;;12.05;4.88;;;11.60;99.90;;;;;;4941326;28;214389;-74
2022/09/26 10:38:16;;;;;;;13.15;4.95;;;11.60;99.90;;;;;;5011773;28;21168;-73
2022/09/26 10:40:53;;;;;;;14.70;4.85;;;11.60;99.90;;;;;;4943485;28;206668;-74
2022/09/26 10:43:23;;;;;;;10.70;4.57;;;11.60;99.90;;;;;;4962710;28;20058;-74
2022/09/26 10:45:54;;;;;;;12.13;4.72;;;11.60;99.90;;;;;;4960565;28;206342;-74
2022/09/26 10:48:48;;;;;;;15.20;4.53;;;11.50;99.90;;;;;;4977961;28;20412;-74
2022/09/26 10:51:40;;;;;;;15.10;4.90;;;11.50;99.90;;;;;;4941177;28;208113;-74
2022/09/26 10:54:11;;;;;;;12.20;5.00;;;11.50;99.90;;;;;;4980795;28;20058;-74
2022/09/26 10:56:42;;;;;;;12.23;5.07;;;11.50;99.90;;;;;;4953511;28;206223;-75
2022/09/26 10:59:12;;;;;;;15.70;5.33;;;11.50;99.90;;;;;;4988801;28;20524;-75
2022/09/26 11:01:45;;;;;;;15.10;4.77;;;11.50;99.90;;;;;;4949907;28;205819;-76
2022/09/26 11:07:29;;;;;;;13.35;5.53;;;11.50;99.90;;;;;;4955946;28;203605;-75
2022/09/26 11:10:01;;;;;;;14.35;4.90;;;11.60;99.90;;;;;;5005876;28;20062;-75
2022/09/26 11:12:34;;;;;;;11.73;4.97;;;11.60;99.90;;;;;;4958613;28;208886;-75
2022/09/26 11:15:09;;;;;;;10.25;4.68;;;11.50;99.90;;;;;;4989431;28;20054;-75
2022/09/26 11:17:44;;;;;;;12.93;5.28;;;11.50;99.90;;;;;;4943576;28;156864;-74
2022/09/26 11:20:42;;;;;;;12.43;5.40;;;11.60;99.90;;;;;;5006655;28;208751;-75
2022/09/26 11:23:21;;;;;;;12.45;5.40;;;11.50;99.90;;;;;;4975506;28;160502;-75
2022/09/26 11:26:02;;;;;;;12.48;5.10;;;11.50;99.90;;;;;;4931766;28;209551;-76
2022/09/26 11:28:39;;;;;;;10.80;5.22;;;11.50;99.90;;;;;;4986431;28;20057;-75
2022/09/26 11:31:23;;;;;;;13.60;5.13;;;11.60;99.90;;;;;;4929965;28;208201;-76
2022/09/26 11:33:50;;;;;;;11.82;5.25;;;11.60;99.90;;;;;;4981561;28;20578;-76
2022/09/26 11:36:38;;;;;;;11.88;5.28;;;11.60;99.90;;;;;;4955830;28;176743;-76
2022/09/26 11:39:18;;;;;;;11.82;4.93;;;11.60;99.90;;;;;;4998302;28;20054;-76
2022/09/26 11:42:12;;;;;;;10.43;5.22;;;11.60;99.90;;;;;;4939084;28;206283;-75
2022/09/26 11:45:00;;;;;;;12.15;4.93;;;11.60;99.90;;;;;;4972621;28;20046;-75
2022/09/26 11:47:35;;;;;;;10.55;5.03;;;11.60;99.90;;;;;;4939903;28;205027;-75
2022/09/26 11:50:38;;;;;;;11.25;4.55;;;11.60;99.90;;;;;;4999080;28;20109;-75
2022/09/26 11:53:22;;;;;;;11.00;5.00;;;11.70;99.90;;;;;;4905532;28;206319;-75
2022/09/26 11:55:57;;;;;;;10.90;4.63;;;11.70;99.90;;;;;;4905167;28;205330;-75
2022/09/26 11:58:42;;;;;;;9.32;4.57;;;11.70;99.90;;;;;;4966485;28;20508;-76
2022/09/26 12:01:26;;;;;;;10.43;4.68;;;11.70;99.90;;;;;;4947019;28;206935;-75
2022/09/26 12:04:16;;;;;;;11.98;4.65;;;11.70;99.90;;;;;;5005818;28;20053;-76
2022/09/26 12:06:55;;;;;;;11.95;4.80;;;11.80;99.90;;;;;;4977486;28;205994;-76
2022/09/26 12:09:48;;;;;;;10.15;4.90;;;11.70;99.90;;;;;;5010035;28;20577;-76
2022/09/26 12:12:40;;;;;;;10.13;4.70;;;11.80;99.90;;;;;;4951227;28;205918;-76
2022/09/26 12:15:22;;;;;;;9.93;4.72;;;11.80;99.90;;;;;;5026466;28;20060;-76
2022/09/26 12:18:03;;;;;;;10.07;4.55;;;11.80;99.90;;;;;;4968951;28;207199;-77
2022/09/26 12:21:07;;;;;;;9.95;4.72;;;11.70;99.90;;;;;;4977773;28;120502;-77
2022/09/26 12:23:47;;;;;;;11.48;4.78;;;11.80;99.90;;;;;;4992190;28;20058;-76
2022/09/26 12:26:33;;;;;;;9.55;4.53;;;11.80;99.90;;;;;;4951450;28;205692;-77
2022/09/26 12:29:17;;;;;;;11.32;4.68;;;11.80;99.90;;;;;;5004184;28;20053;-75
2022/09/26 12:32:15;;;;;;;10.52;4.28;;;11.80;99.90;;;;;;4978322;28;205476;-77
2022/09/26 12:34:53;;;;;;;10.07;4.30;;;11.80;99.90;;;;;;4995243;28;20396;-78
2022/09/26 12:37:56;;;;;;;8.75;4.18;;;11.80;99.90;;;;;;4979426;28;184198;-75
2022/09/26 12:40:30;;;;;;;9.87;4.43;;;11.80;99.90;;;;;;4939020;28;209989;-75
2022/09/26 12:43:23;;;;;;;11.73;4.20;;;11.90;99.90;;;;;;4948437;28;20069;-74
2022/09/26 12:45:58;;;;;;;10.27;4.13;;;11.90;99.90;;;;;;4898660;28;206005;-73
2022/09/26 12:48:45;;;;;;;8.40;4.10;;;11.90;99.90;;;;;;4955623;28;20055;-75
2022/09/26 12:51:23;;;;;;;10.45;4.43;;;11.90;99.90;;;;;;4908108;28;205390;-74
2022/09/26 12:53:58;;;;;;;11.68;4.45;;;11.90;99.90;;;;;;4949620;28;20055;-75
2022/09/26 12:56:39;;;;;;;10.70;4.47;;;11.90;99.90;;;;;;4906079;28;215312;-75
2022/09/26 12:59:33;;;;;;;10.45;4.40;;;12.00;99.90;;;;;;4958562;28;20746;-75
2022/09/26 13:02:16;;;;;;;10.50;4.15;;;12.00;99.90;;;;;;4896568;28;219544;-75
2022/09/26 13:05:05;;;;;;;9.18;3.90;;;12.00;99.90;;;;;;4963354;28;20051;-75
2022/09/26 13:08:08;;;;;;;9.57;4.30;;;12.10;99.90;;;;;;4903238;28;209231;-75
2022/09/26 13:10:42;;;;;;;8.40;3.70;;;12.20;99.90;;;;;;4904859;28;206039;-75
2022/09/26 13:13:35;;;;;;;9.57;4.28;;;12.10;99.90;;;;;;4943576;29;20059;-76
2022/09/26 13:16:10;;;;;;;8.60;3.53;;;12.10;99.90;;;;;;4907013;28;204901;-75
2022/09/26 13:18:57;;;;;;;10.77;3.80;;;12.10;99.90;;;;;;5018641;28;20423;-75
2022/09/26 13:21:51;;;;;;;9.15;3.50;;;12.20;99.90;;;;;;4958751;28;208444;-75